Airfield :
LOGIN :

Register | Disclaimer

   EN    FR    IT 

 










Legend :    VFR   Marginal VFR   IFR   Intensive IFR   Very Intensive IFR
Visi :
Ceiling :
>= 8 km
>= 3000ft
5 to 8 km
1000 to 3000 ft
1500m to 5 km
500 to 1000 ft
800 to 1500m
200 to 500 ft
< 800m
< 200 ft
Symbols :   Thunderstorms  Fog  Heavy snow  Heavy precipitations  Wind > 20 kt
SIGMETs :     Misc.  Thunderstorms  Icing  Turbulence  Mountain Waves  Volcanic Ashes






- Airport Elevation : 84 ft


LFBC - Cazaux

CURRENT METAR :
  • 180400Z AUTO VRB02KT 9000 // OVC005 04/03 Q1033

EXPIRED METARs :
  • 180330Z AUTO 02003KT 9999 // OVC005 04/04 Q1033
  • 180300Z AUTO VRB02KT 9999 // OVC006 05/04 Q1033
  • 180230Z AUTO VRB03KT 9999 // OVC005 05/04 Q1033
  • 180200Z AUTO 05003KT 9999 // OVC005 05/04 Q1033
  • 180130Z AUTO 07003KT 030V100 9000 // OVC005 05/04 Q1033

TAF TAF LFBC
Valid from the 17 at 15:00 until the 18 at 15:00 UTC


171400Z 1715/1815 04005KT 8000 BKN010
BECMG 1715/1716 4500 BR BKN007
BECMG 1716/1718 3000 BR OVC003
BECMG 1718/1719 0500 FG VV///
BECMG 1810/1812 3000 BR OVC003
BECMG 1812/1814 6000 NSW BKN008



MET'MAP, your aeronautical weather chart ! - Copyright ORBIFLY December 2007 - Disclaimer

ORBIFLY MET'MAP TEAM :

Programming & Development : Alexandra Zaïnal
Concept & original design : Baudouin d'Aumeries
Assistance for programming : Marc-Olivier Méhu
Technical & hardware support : Manuel Goepfert

Contact : metmap@orbifly.com




SOURCES & CREDITS :

   NOAA